Time;durP1;ratioP1;P1;durP2;ratioP2;P2;SDS_P1;SDS_P2;PMS_P1;PMS_P2;Temp;Humidity;BMP_temperature;BMP_pressure;BME280_temperature;BME280_humidity;BME280_pressure;Samples;Min_cycle;Max_cycle;Signal;HPM_P1;HPM_P2
2023/05/25 04:16:36;;;;;;;;;16.50;16.50;;;;;;;;5799138;22;11446;-74
2023/05/25 04:19:01;;;;;;;;;11.75;9.75;;;;;;;;6374364;22;11422;-74
2023/05/25 04:21:27;;;;;;;;;9.50;9.00;;;;;;;;6375463;22;8771;-73
2023/05/25 04:23:52;;;;;;;;;11.25;8.25;;;;;;;;6376133;22;8860;-73
2023/05/25 04:26:18;;;;;;;;;15.25;10.00;;;;;;;;6375627;22;8828;-74
2023/05/25 04:28:44;;;;;;;;;16.25;10.50;;;;;;;;6375191;22;8761;-73
2023/05/25 04:31:12;;;;;;;;;10.50;10.25;;;;;;;;6375233;22;12508;-73
2023/05/25 04:33:37;;;;;;;;;16.25;11.75;;;;;;;;6375175;22;11314;-73
2023/05/25 04:36:03;;;;;;;;;14.25;13.25;;;;;;;;6374420;22;11359;-73
2023/05/25 04:38:29;;;;;;;;;14.50;14.00;;;;;;;;6375371;22;8736;-74
2023/05/25 04:40:56;;;;;;;;;13.00;13.00;;;;;;;;6375656;22;8744;-73
2023/05/25 04:43:21;;;;;;;;;19.25;17.00;;;;;;;;6346571;22;11365;-74
2023/05/25 04:45:46;;;;;;;;;12.75;12.75;;;;;;;;6375477;22;11411;-74
2023/05/25 04:48:12;;;;;;;;;14.25;12.25;;;;;;;;6375721;22;8732;-73
2023/05/25 04:50:40;;;;;;;;;21.75;18.50;;;;;;;;6375737;22;8788;-73
2023/05/25 04:53:05;;;;;;;;;18.00;16.75;;;;;;;;6347421;22;8758;-74
2023/05/25 04:55:31;;;;;;;;;16.00;11.75;;;;;;;;6375750;22;11358;-73
2023/05/25 04:57:56;;;;;;;;;17.25;16.50;;;;;;;;6375395;22;8760;-73
2023/05/25 05:00:21;;;;;;;;;17.25;16.25;;;;;;;;6374628;22;8747;-73
2023/05/25 05:02:47;;;;;;;;;21.00;17.50;;;;;;;;6374873;22;8767;-74
2023/05/25 05:05:12;;;;;;;;;21.50;19.00;;;;;;;;6375490;22;8740;-73
2023/05/25 05:07:37;;;;;;;;;12.75;12.75;;;;;;;;6376161;22;8748;-74
2023/05/25 05:10:03;;;;;;;;;16.75;14.75;;;;;;;;6374661;22;8783;-73
2023/05/25 05:12:28;;;;;;;;;14.50;11.00;;;;;;;;6373875;22;8779;-73
2023/05/25 05:14:54;;;;;;;;;21.25;17.25;;;;;;;;6375477;22;11425;-73
2023/05/25 05:17:20;;;;;;;;;19.50;15.75;;;;;;;;6374125;22;8748;-74
2023/05/25 05:19:45;;;;;;;;;23.25;17.50;;;;;;;;6374990;22;12259;-73
2023/05/25 05:22:12;;;;;;;;;18.50;17.00;;;;;;;;6375331;22;8802;-73
2023/05/25 05:24:37;;;;;;;;;17.50;17.50;;;;;;;;6374610;22;8728;-74
2023/05/25 05:27:02;;;;;;;;;16.00;11.50;;;;;;;;6374696;22;11383;-73
2023/05/25 05:29:28;;;;;;;;;11.00;11.00;;;;;;;;6374640;22;8874;-73
2023/05/25 05:31:54;;;;;;;;;18.00;16.25;;;;;;;;6375304;22;8744;-73
2023/05/25 05:34:20;;;;;;;;;15.00;12.25;;;;;;;;6374522;22;9921;-73
2023/05/25 05:36:45;;;;;;;;;12.50;9.75;;;;;;;;6346099;22;11360;-76
2023/05/25 05:39:10;;;;;;;;;14.75;14.25;;;;;;;;6374363;22;8779;-73
2023/05/25 05:41:35;;;;;;;;;13.00;12.50;;;;;;;;6374419;22;8785;-74
2023/05/25 05:44:00;;;;;;;;;17.00;15.00;;;;;;;;6374312;22;8760;-75
2023/05/25 05:46:26;;;;;;;;;14.75;14.75;;;;;;;;6374376;22;8783;-74
2023/05/25 05:48:51;;;;;;;;;15.50;14.25;;;;;;;;6374803;22;8798;-73
2023/05/25 05:51:16;;;;;;;;;16.00;14.75;;;;;;;;6375494;22;8854;-81
2023/05/25 05:53:41;;;;;;;;;14.75;11.50;;;;;;;;6374971;22;8752;-74
2023/05/25 05:56:15;;;;;;;;;15.00;14.50;;;;;;;;6375285;22;8760;-76
2023/05/25 05:58:40;;;;;;;;;16.00;13.50;;;;;;;;6374941;22;8739;-75
2023/05/25 06:01:05;;;;;;;;;16.50;14.50;;;;;;;;6375355;22;11399;-77
2023/05/25 06:03:31;;;;;;;;;17.25;10.75;;;;;;;;6374927;22;8856;-77
2023/05/25 06:05:56;;;;;;;;;14.25;9.75;;;;;;;;6373903;22;8862;-76
2023/05/25 06:08:21;;;;;;;;;18.00;16.00;;;;;;;;6374661;22;8787;-75
2023/05/25 06:10:47;;;;;;;;;19.25;15.25;;;;;;;;6372729;22;8771;-73
2023/05/25 06:13:12;;;;;;;;;13.50;13.00;;;;;;;;6373600;22;8774;-74
2023/05/25 06:15:37;;;;;;;;;14.75;13.00;;;;;;;;6373370;22;8744;-76
2023/05/25 06:18:02;;;;;;;;;9.25;8.25;;;;;;;;6373855;22;8849;-74
2023/05/25 06:20:27;;;;;;;;;14.25;12.25;;;;;;;;6373937;22;8776;-75
2023/05/25 06:22:53;;;;;;;;;18.25;14.50;;;;;;;;6373720;22;8774;-74
2023/05/25 06:25:19;;;;;;;;;16.50;14.75;;;;;;;;6373914;22;8770;-75
2023/05/25 06:27:44;;;;;;;;;18.25;13.25;;;;;;;;6345512;22;8740;-74
2023/05/25 06:30:10;;;;;;;;;15.50;14.00;;;;;;;;6371533;22;11392;-74
2023/05/25 06:32:35;;;;;;;;;21.75;13.75;;;;;;;;6373137;22;8760;-75
2023/05/25 06:35:01;;;;;;;;;11.00;11.00;;;;;;;;6373446;22;8831;-75
2023/05/25 06:37:26;;;;;;;;;21.00;16.50;;;;;;;;6373709;22;9468;-74
2023/05/25 06:39:52;;;;;;;;;13.25;13.25;;;;;;;;6372734;22;8768;-75
2023/05/25 06:42:17;;;;;;;;;14.00;11.75;;;;;;;;6373699;22;8731;-75
2023/05/25 06:44:42;;;;;;;;;21.25;19.50;;;;;;;;6373747;22;8755;-74
2023/05/25 06:47:07;;;;;;;;;26.25;22.50;;;;;;;;6373874;22;9944;-76
2023/05/25 06:49:32;;;;;;;;;21.25;20.50;;;;;;;;6373596;22;8890;-76
2023/05/25 06:51:58;;;;;;;;;19.25;19.00;;;;;;;;6374068;22;8755;-75
2023/05/25 06:54:23;;;;;;;;;16.75;15.00;;;;;;;;6374168;22;8821;-75
2023/05/25 06:56:48;;;;;;;;;23.00;15.75;;;;;;;;6373635;22;9522;-74
2023/05/25 06:59:13;;;;;;;;;20.25;15.50;;;;;;;;6375079;22;8755;-75
2023/05/25 07:01:38;;;;;;;;;18.25;16.75;;;;;;;;6375024;22;8770;-75
2023/05/25 07:04:04;;;;;;;;;14.75;12.75;;;;;;;;6345923;22;8780;-75
2023/05/25 07:06:29;;;;;;;;;26.50;18.25;;;;;;;;6374593;22;8764;-74
2023/05/25 07:08:54;;;;;;;;;19.75;14.50;;;;;;;;6374662;22;8775;-75
2023/05/25 07:11:20;;;;;;;;;24.50;22.50;;;;;;;;6345903;22;8803;-75
2023/05/25 07:13:46;;;;;;;;;15.75;13.00;;;;;;;;6375281;22;8860;-74
2023/05/25 07:16:11;;;;;;;;;16.00;12.25;;;;;;;;6374302;22;11354;-77
2023/05/25 07:18:42;;;;;;;;;17.50;16.50;;;;;;;;6375239;22;8744;-80
2023/05/25 07:21:08;;;;;;;;;18.50;15.00;;;;;;;;6374794;22;8756;-77
2023/05/25 07:23:33;;;;;;;;;16.00;12.00;;;;;;;;6374550;22;11351;-80
2023/05/25 07:25:59;;;;;;;;;17.00;14.00;;;;;;;;6374510;22;11405;-79
2023/05/25 07:28:24;;;;;;;;;13.00;12.00;;;;;;;;6374625;22;8794;-81
2023/05/25 07:30:49;;;;;;;;;9.00;9.00;;;;;;;;6377185;22;8890;-83
2023/05/25 07:33:14;;;;;;;;;13.25;12.00;;;;;;;;6373649;22;8739;-84
2023/05/25 07:35:39;;;;;;;;;9.50;9.25;;;;;;;;6345518;22;8881;-81
2023/05/25 07:38:05;;;;;;;;;9.25;8.00;;;;;;;;6375823;22;9602;-82
2023/05/25 07:40:30;;;;;;;;;9.00;9.00;;;;;;;;6373792;22;8887;-76
2023/05/25 07:42:55;;;;;;;;;11.50;8.75;;;;;;;;6374990;22;9494;-81
2023/05/25 07:45:21;;;;;;;;;10.25;8.75;;;;;;;;6374612;22;9445;-82
2023/05/25 07:47:46;;;;;;;;;11.75;9.25;;;;;;;;6376889;22;8797;-81
2023/05/25 07:50:12;;;;;;;;;7.25;6.25;;;;;;;;6377435;22;9677;-80
2023/05/25 07:52:37;;;;;;;;;10.50;8.50;;;;;;;;6377025;22;8740;-81
2023/05/25 07:55:03;;;;;;;;;14.00;11.25;;;;;;;;6376272;22;8760;-80
2023/05/25 07:57:29;;;;;;;;;10.75;7.50;;;;;;;;6376600;22;8728;-78
2023/05/25 07:59:54;;;;;;;;;8.50;7.50;;;;;;;;6347927;22;11464;-79
2023/05/25 08:02:19;;;;;;;;;15.25;14.00;;;;;;;;6376316;22;8755;-80
2023/05/25 08:04:44;;;;;;;;;10.25;9.75;;;;;;;;6376261;22;8882;-80
2023/05/25 08:07:10;;;;;;;;;7.75;7.75;;;;;;;;6347882;22;8763;-80
2023/05/25 08:09:35;;;;;;;;;5.75;5.25;;;;;;;;6374774;22;8768;-80
2023/05/25 08:12:00;;;;;;;;;6.75;5.50;;;;;;;;6375825;22;8771;-81
2023/05/25 08:14:25;;;;;;;;;7.50;6.25;;;;;;;;6376202;22;9484;-82
2023/05/25 08:16:51;;;;;;;;;12.50;8.00;;;;;;;;6375558;22;8768;-84
2023/05/25 08:19:16;;;;;;;;;6.50;6.50;;;;;;;;6375699;22;8759;-82
2023/05/25 08:21:41;;;;;;;;;6.25;5.00;;;;;;;;6376130;22;8937;-79
2023/05/25 08:24:07;;;;;;;;;6.25;6.00;;;;;;;;6376392;22;8944;-83
2023/05/25 08:26:35;;;;;;;;;8.75;8.25;;;;;;;;6376653;22;8748;-81
2023/05/25 08:29:01;;;;;;;;;5.50;4.00;;;;;;;;6376690;22;9401;-81
2023/05/25 08:31:26;;;;;;;;;9.50;9.00;;;;;;;;6376429;22;11525;-79
2023/05/25 08:33:51;;;;;;;;;8.00;6.50;;;;;;;;6348323;22;11450;-78
2023/05/25 08:36:16;;;;;;;;;8.75;7.75;;;;;;;;6376843;22;8747;-78
2023/05/25 08:38:42;;;;;;;;;7.50;6.00;;;;;;;;6376177;22;8862;-78
2023/05/25 08:41:07;;;;;;;;;8.75;7.00;;;;;;;;6376366;22;9503;-77
2023/05/25 08:43:33;;;;;;;;;5.25;5.25;;;;;;;;6377036;22;8760;-77
2023/05/25 08:46:07;;;;;;;;;5.25;5.25;;;;;;;;6376261;22;8831;-74
2023/05/25 08:48:34;;;;;;;;;9.75;4.00;;;;;;;;6376271;22;8836;-78
2023/05/25 08:51:03;;;;;;;;;10.50;10.25;;;;;;;;6376125;22;11376;-76
2023/05/25 08:53:30;;;;;;;;;9.25;5.00;;;;;;;;6375561;22;11306;-76
2023/05/25 08:55:56;;;;;;;;;4.75;4.75;;;;;;;;6345507;22;11304;-77
2023/05/25 08:58:29;;;;;;;;;6.75;6.00;;;;;;;;6346791;22;11340;-77
2023/05/25 09:00:57;;;;;;;;;9.25;6.00;;;;;;;;6375579;22;8827;-78
2023/05/25 09:03:22;;;;;;;;;3.00;3.00;;;;;;;;6375682;22;11315;-78
2023/05/25 09:05:48;;;;;;;;;6.00;5.00;;;;;;;;6376268;22;11023;-77
2023/05/25 09:08:14;;;;;;;;;8.00;7.25;;;;;;;;6347201;22;8736;-77
2023/05/25 09:10:39;;;;;;;;;7.75;6.50;;;;;;;;6375760;22;11076;-77
2023/05/25 09:13:05;;;;;;;;;2.25;1.50;;;;;;;;6375818;22;9788;-76
2023/05/25 09:15:31;;;;;;;;;3.50;3.50;;;;;;;;6375828;22;8748;-75
2023/05/25 09:17:56;;;;;;;;;7.75;4.50;;;;;;;;6347172;22;9636;-76
2023/05/25 09:20:22;;;;;;;;;5.25;3.25;;;;;;;;6376328;22;8820;-79
2023/05/25 09:22:47;;;;;;;;;5.25;4.25;;;;;;;;6375813;22;8697;-76
2023/05/25 09:25:16;;;;;;;;;7.25;6.25;;;;;;;;6375840;22;11233;-75
2023/05/25 09:27:41;;;;;;;;;10.25;5.25;;;;;;;;6375894;22;8720;-76
2023/05/25 09:30:07;;;;;;;;;6.50;5.25;;;;;;;;6375801;22;11154;-75
2023/05/25 09:32:32;;;;;;;;;8.75;6.50;;;;;;;;6376024;22;8759;-77
2023/05/25 09:35:08;;;;;;;;;8.00;6.25;;;;;;;;6375478;22;8775;-77
2023/05/25 09:37:34;;;;;;;;;7.75;5.50;;;;;;;;6375527;22;8744;-75
2023/05/25 09:39:59;;;;;;;;;7.25;7.25;;;;;;;;6374026;22;11116;-76
2023/05/25 09:42:24;;;;;;;;;8.50;7.50;;;;;;;;6347200;22;11522;-76
2023/05/25 09:44:49;;;;;;;;;5.50;5.50;;;;;;;;6376135;22;8759;-76
2023/05/25 09:47:16;;;;;;;;;6.50;6.00;;;;;;;;6375879;22;8758;-76
2023/05/25 09:49:43;;;;;;;;;3.25;3.25;;;;;;;;6375296;22;8767;-76
2023/05/25 09:52:08;;;;;;;;;4.00;4.00;;;;;;;;6375457;22;11085;-75
2023/05/25 09:54:34;;;;;;;;;5.50;5.50;;;;;;;;6375899;22;10964;-75
2023/05/25 09:57:01;;;;;;;;;6.00;5.00;;;;;;;;6375434;22;8732;-75
2023/05/25 09:59:26;;;;;;;;;8.75;7.50;;;;;;;;6375588;22;10873;-75
2023/05/25 10:01:52;;;;;;;;;6.00;6.00;;;;;;;;6376024;22;11330;-76
2023/05/25 10:04:17;;;;;;;;;5.00;5.00;;;;;;;;6376187;22;8743;-76
2023/05/25 10:06:44;;;;;;;;;5.00;4.00;;;;;;;;6376261;22;8849;-76
2023/05/25 10:09:10;;;;;;;;;6.25;4.25;;;;;;;;6375797;22;8904;-76
2023/05/25 10:11:37;;;;;;;;;8.75;6.75;;;;;;;;6375142;22;11083;-75
2023/05/25 10:14:05;;;;;;;;;4.75;3.25;;;;;;;;6375573;22;8748;-74
2023/05/25 10:16:31;;;;;;;;;9.75;7.75;;;;;;;;6374885;22;10876;-75
2023/05/25 10:19:11;;;;;;;;;4.25;4.25;;;;;;;;6375456;22;11030;-76
2023/05/25 10:21:38;;;;;;;;;4.50;3.00;;;;;;;;6375353;22;11838;-75
2023/05/25 10:24:05;;;;;;;;;6.75;6.75;;;;;;;;6375667;22;10800;-76
2023/05/25 10:26:32;;;;;;;;;4.25;4.25;;;;;;;;6375420;22;10874;-76
2023/05/25 10:29:03;;;;;;;;;6.00;6.00;;;;;;;;6375449;22;10944;-73
2023/05/25 10:31:28;;;;;;;;;3.00;2.50;;;;;;;;6375636;22;10951;-76
2023/05/25 10:33:54;;;;;;;;;3.00;2.25;;;;;;;;6374876;22;10869;-76
2023/05/25 10:36:20;;;;;;;;;3.75;3.75;;;;;;;;6346850;22;8740;-74
2023/05/25 10:38:45;;;;;;;;;3.00;3.00;;;;;;;;6374642;22;11082;-73
2023/05/25 10:41:10;;;;;;;;;5.50;4.50;;;;;;;;6374920;22;8775;-73
2023/05/25 10:43:36;;;;;;;;;3.25;3.25;;;;;;;;6375391;22;8760;-76
2023/05/25 10:46:03;;;;;;;;;5.75;5.75;;;;;;;;6375260;22;8827;-77
2023/05/25 10:48:38;;;;;;;;;7.25;6.00;;;;;;;;6374740;22;10849;-76
2023/05/25 10:51:03;;;;;;;;;4.00;4.00;;;;;;;;6374117;22;10953;-76
2023/05/25 10:53:28;;;;;;;;;5.00;3.25;;;;;;;;6374971;22;10933;-73
2023/05/25 10:55:54;;;;;;;;;5.25;4.25;;;;;;;;6374907;22;8748;-73
2023/05/25 10:58:20;;;;;;;;;8.75;6.50;;;;;;;;6346332;22;8747;-73
2023/05/25 11:00:58;;;;;;;;;0.50;0.00;;;;;;;;6375569;22;8715;-73
2023/05/25 11:03:44;;;;;;;;;5.25;4.50;;;;;;;;6375094;22;10775;-73
2023/05/25 11:06:14;;;;;;;;;4.50;4.50;;;;;;;;6374830;22;11042;-75
2023/05/25 11:08:48;;;;;;;;;7.50;6.00;;;;;;;;6375010;22;10952;-74
2023/05/25 11:11:13;;;;;;;;;4.00;4.00;;;;;;;;6374868;22;11362;-73
2023/05/25 11:13:45;;;;;;;;;9.25;8.00;;;;;;;;6345978;22;10918;-72
2023/05/25 11:16:26;;;;;;;;;6.00;6.00;;;;;;;;6374229;22;8744;-74
2023/05/25 11:18:58;;;;;;;;;9.50;7.00;;;;;;;;6374567;22;11059;-71
2023/05/25 11:21:26;;;;;;;;;9.25;7.00;;;;;;;;6374488;22;11025;-71
2023/05/25 11:23:58;;;;;;;;;3.00;3.00;;;;;;;;6375420;22;11069;-72
2023/05/25 11:26:27;;;;;;;;;8.00;4.50;;;;;;;;6375907;22;10831;-71
2023/05/25 11:28:53;;;;;;;;;6.00;5.00;;;;;;;;6376184;22;10763;-70
2023/05/25 11:31:19;;;;;;;;;6.75;6.00;;;;;;;;6375128;22;11014;-70
2023/05/25 11:33:46;;;;;;;;;6.25;4.00;;;;;;;;6376549;22;8708;-71
2023/05/25 11:36:12;;;;;;;;;6.75;6.50;;;;;;;;6375276;22;11284;-70
2023/05/25 11:38:44;;;;;;;;;7.00;6.00;;;;;;;;6375907;22;11047;-71
2023/05/25 11:41:16;;;;;;;;;10.50;5.25;;;;;;;;6375578;22;8805;-70
2023/05/25 11:43:42;;;;;;;;;5.25;5.25;;;;;;;;6347946;22;11069;-70
2023/05/25 11:46:10;;;;;;;;;7.00;5.00;;;;;;;;6375242;22;10876;-71
2023/05/25 11:48:35;;;;;;;;;6.50;6.00;;;;;;;;6376067;22;8724;-70
2023/05/25 11:51:04;;;;;;;;;5.50;4.00;;;;;;;;6375186;22;11064;-71
2023/05/25 11:53:29;;;;;;;;;6.50;5.75;;;;;;;;6376234;22;8728;-71
2023/05/25 11:55:55;;;;;;;;;7.75;7.00;;;;;;;;6375077;22;10965;-70
2023/05/25 11:58:20;;;;;;;;;6.00;6.00;;;;;;;;6375885;22;8771;-70
2023/05/25 12:00:45;;;;;;;;;4.00;4.00;;;;;;;;6376249;22;8798;-70
2023/05/25 12:03:27;;;;;;;;;5.25;5.25;;;;;;;;6376279;22;8825;-70
2023/05/25 12:05:52;;;;;;;;;4.50;2.50;;;;;;;;6376172;22;8735;-71
2023/05/25 12:08:30;;;;;;;;;7.00;4.75;;;;;;;;6376164;22;10937;-71
2023/05/25 12:10:55;;;;;;;;;4.75;4.75;;;;;;;;6376215;22;8744;-71
2023/05/25 12:13:21;;;;;;;;;4.75;3.25;;;;;;;;6375575;22;10891;-70
2023/05/25 12:15:46;;;;;;;;;11.50;9.75;;;;;;;;6375266;22;8744;-71
2023/05/25 12:18:11;;;;;;;;;8.25;7.50;;;;;;;;6376550;22;8759;-71
2023/05/25 12:20:39;;;;;;;;;8.00;5.50;;;;;;;;6376456;22;8783;-71
2023/05/25 12:23:04;;;;;;;;;5.50;5.00;;;;;;;;6375922;22;8732;-71
2023/05/25 12:25:29;;;;;;;;;3.25;3.25;;;;;;;;6376355;22;10855;-71
2023/05/25 12:28:11;;;;;;;;;4.75;4.75;;;;;;;;6376444;22;8744;-71
2023/05/25 12:30:36;;;;;;;;;7.25;6.00;;;;;;;;6375813;22;8770;-71
2023/05/25 12:33:01;;;;;;;;;7.75;5.75;;;;;;;;6376262;22;10840;-71
2023/05/25 12:35:27;;;;;;;;;6.25;4.75;;;;;;;;6375157;22;8772;-73
2023/05/25 12:38:19;;;;;;;;;6.00;6.00;;;;;;;;6375882;22;8748;-70
2023/05/25 12:40:44;;;;;;;;;5.25;5.25;;;;;;;;6368372;22;8766;-72
2023/05/25 12:43:10;;;;;;;;;2.50;2.00;;;;;;;;6375794;22;10878;-72
2023/05/25 12:45:42;;;;;;;;;6.50;5.25;;;;;;;;6376059;22;8720;-71
2023/05/25 12:48:07;;;;;;;;;7.75;5.50;;;;;;;;6375897;22;10833;-73
2023/05/25 12:50:32;;;;;;;;;4.50;3.25;;;;;;;;6376147;22;11148;-71
2023/05/25 12:53:01;;;;;;;;;6.75;5.75;;;;;;;;6376285;22;8740;-71
2023/05/25 12:55:30;;;;;;;;;8.00;6.25;;;;;;;;6376242;22;8720;-72
2023/05/25 12:58:00;;;;;;;;;4.25;4.00;;;;;;;;6376135;22;10805;-71
2023/05/25 13:00:26;;;;;;;;;2.75;2.00;;;;;;;;6375422;22;11025;-71
2023/05/25 13:02:52;;;;;;;;;6.75;6.75;;;;;;;;6375713;22;10958;-70
2023/05/25 13:05:21;;;;;;;;;5.75;5.75;;;;;;;;6375802;22;11001;-73
2023/05/25 13:07:47;;;;;;;;;6.25;5.00;;;;;;;;6375880;22;11346;-72
2023/05/25 13:10:13;;;;;;;;;6.50;6.00;;;;;;;;6375765;22;11080;-73
2023/05/25 13:12:39;;;;;;;;;5.00;4.25;;;;;;;;6375286;22;8786;-73
2023/05/25 13:15:04;;;;;;;;;5.75;5.50;;;;;;;;6376106;22;10901;-73
2023/05/25 13:17:30;;;;;;;;;5.75;5.75;;;;;;;;6375727;22;8964;-72
2023/05/25 13:19:55;;;;;;;;;7.25;7.00;;;;;;;;6376187;22;8771;-72
2023/05/25 13:22:20;;;;;;;;;10.00;7.50;;;;;;;;6374910;22;8752;-83
2023/05/25 13:24:45;;;;;;;;;9.00;6.75;;;;;;;;6348067;22;8768;-82
2023/05/25 13:27:10;;;;;;;;;8.75;6.25;;;;;;;;6347519;22;8870;-82
2023/05/25 13:29:36;;;;;;;;;6.00;4.75;;;;;;;;6375666;22;8888;-83
2023/05/25 13:32:01;;;;;;;;;8.00;8.00;;;;;;;;6376111;22;9635;-82
2023/05/25 13:34:26;;;;;;;;;12.00;8.00;;;;;;;;6376174;22;8752;-82
2023/05/25 13:36:51;;;;;;;;;9.25;7.50;;;;;;;;6376264;22;8748;-82
2023/05/25 13:39:18;;;;;;;;;8.75;8.75;;;;;;;;6375486;22;8941;-82
2023/05/25 13:41:45;;;;;;;;;9.00;8.75;;;;;;;;6375232;22;11677;-83
2023/05/25 13:44:11;;;;;;;;;9.00;7.25;;;;;;;;6375639;22;8721;-82
2023/05/25 13:46:36;;;;;;;;;7.25;7.25;;;;;;;;6375623;22;10897;-82
2023/05/25 13:49:02;;;;;;;;;7.50;7.00;;;;;;;;6376051;22;11050;-82
2023/05/25 13:51:27;;;;;;;;;9.00;5.75;;;;;;;;6375773;22;8752;-79
2023/05/25 13:53:52;;;;;;;;;8.00;7.75;;;;;;;;6375394;22;8821;-82
2023/05/25 13:56:18;;;;;;;;;7.20;7.20;;;;;;;;6376660;22;8764;-82
2023/05/25 13:58:43;;;;;;;;;5.00;4.00;;;;;;;;6376304;22;8736;-83
2023/05/25 14:01:08;;;;;;;;;8.00;8.00;;;;;;;;6375148;22;9500;-81
2023/05/25 14:03:33;;;;;;;;;18.75;16.75;;;;;;;;6374950;22;8736;-79
2023/05/25 14:05:59;;;;;;;;;7.75;7.25;;;;;;;;6374770;22;8744;-79
2023/05/25 14:08:24;;;;;;;;;8.25;8.25;;;;;;;;6375445;22;9519;-80
2023/05/25 14:10:49;;;;;;;;;10.00;8.50;;;;;;;;6346911;22;8840;-77
2023/05/25 14:13:14;;;;;;;;;6.50;2.00;;;;;;;;6375205;22;8759;-79
2023/05/25 14:15:40;;;;;;;;;5.50;5.50;;;;;;;;6374511;22;8801;-77
2023/05/25 14:18:05;;;;;;;;;10.25;9.50;;;;;;;;6375007;22;8763;-79
2023/05/25 14:20:32;;;;;;;;;8.00;6.75;;;;;;;;6375529;22;8740;-79
2023/05/25 14:22:58;;;;;;;;;6.25;6.25;;;;;;;;6375580;22;8858;-79
2023/05/25 14:25:23;;;;;;;;;11.00;8.25;;;;;;;;6374939;22;11685;-80
2023/05/25 14:27:48;;;;;;;;;9.25;8.00;;;;;;;;6374995;22;8751;-79
2023/05/25 14:30:13;;;;;;;;;7.50;7.50;;;;;;;;6374962;22;8776;-78
2023/05/25 14:32:38;;;;;;;;;11.50;9.25;;;;;;;;6374388;22;8764;-80
2023/05/25 14:35:04;;;;;;;;;7.25;6.50;;;;;;;;6375991;22;8786;-80
2023/05/25 14:37:29;;;;;;;;;7.25;7.25;;;;;;;;6375960;22;8766;-80
2023/05/25 14:39:54;;;;;;;;;9.50;7.50;;;;;;;;6374847;22;9513;-82
2023/05/25 14:42:20;;;;;;;;;9.00;7.75;;;;;;;;6375620;22;8736;-81
2023/05/25 14:44:45;;;;;;;;;8.25;7.50;;;;;;;;6375494;22;8795;-80
2023/05/25 14:47:10;;;;;;;;;9.75;9.75;;;;;;;;6375897;22;8748;-80
2023/05/25 14:49:36;;;;;;;;;9.00;8.25;;;;;;;;6348067;22;8802;-81
2023/05/25 14:52:01;;;;;;;;;9.75;9.50;;;;;;;;6376096;22;8884;-82
2023/05/25 14:54:26;;;;;;;;;9.50;8.25;;;;;;;;6375418;22;8752;-81
2023/05/25 14:56:51;;;;;;;;;1.25;1.25;;;;;;;;6374592;22;8751;-82
2023/05/25 14:59:16;;;;;;;;;2.25;1.50;;;;;;;;6375688;22;8759;-80
2023/05/25 15:01:42;;;;;;;;;9.00;9.00;;;;;;;;6375495;22;8735;-82
2023/05/25 15:04:10;;;;;;;;;7.75;7.25;;;;;;;;6375006;22;8820;-81
2023/05/25 15:06:38;;;;;;;;;5.75;5.00;;;;;;;;6375337;22;8847;-83
2023/05/25 15:09:03;;;;;;;;;7.75;7.00;;;;;;;;6374658;22;10344;-82
2023/05/25 15:11:28;;;;;;;;;7.00;7.00;;;;;;;;6374847;22;10617;-80
2023/05/25 15:13:53;;;;;;;;;5.75;3.50;;;;;;;;6375157;22;9516;-82
2023/05/25 15:16:18;;;;;;;;;9.25;9.25;;;;;;;;6374965;22;8768;-82
2023/05/25 15:18:43;;;;;;;;;8.50;7.00;;;;;;;;6374915;22;8732;-81
2023/05/25 15:21:09;;;;;;;;;6.75;5.75;;;;;;;;6375144;22;8791;-83
2023/05/25 15:23:34;;;;;;;;;6.00;5.00;;;;;;;;6374775;22;8748;-80
2023/05/25 15:26:06;;;;;;;;;9.75;9.75;;;;;;;;6374765;22;8752;-82
2023/05/25 15:28:34;;;;;;;;;12.25;9.00;;;;;;;;6375574;22;8728;-87
2023/05/25 15:31:00;;;;;;;;;9.00;9.00;;;;;;;;6377912;22;11678;-85
2023/05/25 15:33:25;;;;;;;;;10.00;9.50;;;;;;;;6378459;22;10672;-86
2023/05/25 15:35:50;;;;;;;;;11.50;8.25;;;;;;;;6358953;22;8748;-88
2023/05/25 15:38:16;;;;;;;;;12.25;8.50;;;;;;;;6376554;22;8836;-85
2023/05/25 15:40:41;;;;;;;;;7.75;7.50;;;;;;;;6376364;22;8778;-87
2023/05/25 15:43:06;;;;;;;;;12.50;11.00;;;;;;;;6379856;22;8751;-88
2023/05/25 15:45:31;;;;;;;;;3.25;3.25;;;;;;;;6351081;22;8913;-86
2023/05/25 15:47:56;;;;;;;;;9.00;9.00;;;;;;;;6375696;22;8771;-83
2023/05/25 15:50:22;;;;;;;;;14.25;13.00;;;;;;;;6374874;22;8864;-87
2023/05/25 15:52:47;;;;;;;;;9.25;8.50;;;;;;;;6374751;22;8771;-85
2023/05/25 15:55:12;;;;;;;;;11.25;10.25;;;;;;;;6375188;22;8787;-89
2023/05/25 15:57:37;;;;;;;;;14.00;12.50;;;;;;;;6374486;22;8932;-86
2023/05/25 16:00:04;;;;;;;;;14.00;12.00;;;;;;;;6375133;22;8768;-85
2023/05/25 16:02:29;;;;;;;;;10.25;10.25;;;;;;;;6373492;22;8740;-87
2023/05/25 16:04:55;;;;;;;;;8.50;8.50;;;;;;;;6375633;22;12078;-85
2023/05/25 16:07:20;;;;;;;;;13.00;10.25;;;;;;;;6369887;22;8740;-85
2023/05/25 16:09:45;;;;;;;;;12.00;11.25;;;;;;;;6375845;22;8874;-84
2023/05/25 16:12:10;;;;;;;;;11.50;11.50;;;;;;;;6377249;22;8727;-85
2023/05/25 16:14:35;;;;;;;;;4.00;3.50;;;;;;;;6378244;22;9595;-85
2023/05/25 16:17:01;;;;;;;;;13.75;11.50;;;;;;;;6376767;22;8767;-85
2023/05/25 16:19:26;;;;;;;;;12.00;10.50;;;;;;;;6350534;22;8740;-88
2023/05/25 16:21:51;;;;;;;;;12.00;12.00;;;;;;;;6378144;22;8901;-84
2023/05/25 16:24:16;;;;;;;;;14.50;13.00;;;;;;;;6376309;22;8751;-85
2023/05/25 16:26:41;;;;;;;;;13.00;13.00;;;;;;;;6375749;22;8771;-86
2023/05/25 16:29:06;;;;;;;;;12.75;10.75;;;;;;;;6379858;22;8752;-84
2023/05/25 16:31:33;;;;;;;;;12.50;10.75;;;;;;;;6379109;22;8740;-88
2023/05/25 16:33:58;;;;;;;;;14.50;13.50;;;;;;;;6377138;22;8708;-88
2023/05/25 16:36:23;;;;;;;;;7.00;7.00;;;;;;;;6378251;22;10850;-89
2023/05/25 16:38:48;;;;;;;;;11.00;11.00;;;;;;;;6377721;22;8744;-88
2023/05/25 16:41:14;;;;;;;;;16.00;16.00;;;;;;;;6377148;22;8779;-86
2023/05/25 16:43:39;;;;;;;;;12.50;11.25;;;;;;;;6375163;22;8751;-82
2023/05/25 16:46:05;;;;;;;;;13.50;12.25;;;;;;;;6374594;22;9661;-76
2023/05/25 16:48:30;;;;;;;;;19.50;17.50;;;;;;;;6373687;22;8728;-78
2023/05/25 16:50:58;;;;;;;;;13.50;13.25;;;;;;;;6375500;22;9140;-79
2023/05/25 16:53:23;;;;;;;;;26.25;21.00;;;;;;;;6374839;22;8740;-83
2023/05/25 16:55:49;;;;;;;;;16.25;14.75;;;;;;;;6375661;22;11371;-80
2023/05/25 16:58:14;;;;;;;;;8.25;8.25;;;;;;;;6375513;22;8732;-87
2023/05/25 17:00:39;;;;;;;;;11.00;11.00;;;;;;;;6377288;22;8756;-80
2023/05/25 17:03:05;;;;;;;;;17.00;15.75;;;;;;;;6374962;22;8763;-85
2023/05/25 17:05:31;;;;;;;;;16.50;15.50;;;;;;;;6376159;22;8724;-80
2023/05/25 17:07:56;;;;;;;;;19.75;16.00;;;;;;;;6376629;22;11111;-89
2023/05/25 17:10:21;;;;;;;;;19.50;18.75;;;;;;;;6374995;22;8759;-77
2023/05/25 17:12:46;;;;;;;;;18.25;17.50;;;;;;;;6374056;22;8855;-84
2023/05/25 17:15:14;;;;;;;;;20.50;20.50;;;;;;;;6375081;22;8751;-78
2023/05/25 17:17:40;;;;;;;;;19.50;18.75;;;;;;;;6374752;22;8740;-79
2023/05/25 17:20:05;;;;;;;;;13.00;13.00;;;;;;;;6375254;22;11411;-76
2023/05/25 17:22:30;;;;;;;;;19.25;18.75;;;;;;;;6375403;22;8828;-78
2023/05/25 17:24:55;;;;;;;;;12.50;11.25;;;;;;;;6373933;22;8724;-78
2023/05/25 17:27:21;;;;;;;;;20.50;18.25;;;;;;;;6374141;22;8828;-78
2023/05/25 17:29:46;;;;;;;;;13.50;13.50;;;;;;;;6374801;22;8775;-80
2023/05/25 17:32:11;;;;;;;;;23.00;20.50;;;;;;;;6375341;22;8748;-84
2023/05/25 17:34:36;;;;;;;;;21.75;19.00;;;;;;;;6375221;22;8833;-80
2023/05/25 17:37:02;;;;;;;;;16.75;16.50;;;;;;;;6375550;22;8748;-79
2023/05/25 17:39:27;;;;;;;;;20.00;18.75;;;;;;;;6374379;22;8709;-75
2023/05/25 17:41:52;;;;;;;;;21.50;21.50;;;;;;;;6374588;22;12180;-78
2023/05/25 17:44:18;;;;;;;;;19.50;17.75;;;;;;;;6375086;22;8778;-77
2023/05/25 17:46:43;;;;;;;;;16.00;15.00;;;;;;;;6377015;22;9496;-77
2023/05/25 17:49:08;;;;;;;;;20.00;19.25;;;;;;;;6376477;22;8799;-78
2023/05/25 17:51:33;;;;;;;;;17.50;14.50;;;;;;;;6375735;22;8748;-78
2023/05/25 17:53:58;;;;;;;;;23.00;20.25;;;;;;;;6378049;22;9945;-82
2023/05/25 17:56:25;;;;;;;;;20.75;19.75;;;;;;;;6377443;22;9905;-81
2023/05/25 17:58:50;;;;;;;;;24.25;21.75;;;;;;;;6376437;22;8709;-79
2023/05/25 18:01:16;;;;;;;;;24.75;20.75;;;;;;;;6371735;22;11408;-83
2023/05/25 18:03:41;;;;;;;;;25.75;23.50;;;;;;;;6381938;22;8752;-85
2023/05/25 18:06:06;;;;;;;;;17.00;15.00;;;;;;;;6350484;22;8833;-83
2023/05/25 18:08:31;;;;;;;;;18.50;17.75;;;;;;;;6349469;22;8755;-79
2023/05/25 18:10:57;;;;;;;;;19.50;19.50;;;;;;;;6376145;22;8751;-80
2023/05/25 18:13:22;;;;;;;;;16.50;16.50;;;;;;;;6375516;22;8739;-85
2023/05/25 18:15:47;;;;;;;;;24.75;22.25;;;;;;;;6375884;22;8744;-82
2023/05/25 18:18:14;;;;;;;;;18.75;18.75;;;;;;;;6348137;22;9641;-82
2023/05/25 18:20:39;;;;;;;;;20.00;20.00;;;;;;;;6375821;22;8716;-79
2023/05/25 18:23:06;;;;;;;;;22.75;20.00;;;;;;;;6377457;22;11358;-87
2023/05/25 18:25:32;;;;;;;;;20.50;19.75;;;;;;;;6377173;22;8747;-83
2023/05/25 18:27:57;;;;;;;;;14.00;14.00;;;;;;;;6375674;22;11385;-82
2023/05/25 18:30:22;;;;;;;;;17.00;16.50;;;;;;;;6375228;22;8767;-80
2023/05/25 18:32:47;;;;;;;;;13.50;13.25;;;;;;;;6375474;22;8850;-75
2023/05/25 18:35:12;;;;;;;;;20.75;19.75;;;;;;;;6376110;22;8877;-86
2023/05/25 18:37:38;;;;;;;;;22.50;20.00;;;;;;;;6376097;22;8776;-76
2023/05/25 18:40:03;;;;;;;;;17.75;15.25;;;;;;;;6375982;22;8766;-78
2023/05/25 18:42:28;;;;;;;;;19.50;17.00;;;;;;;;6377157;22;8732;-75
2023/05/25 18:44:54;;;;;;;;;16.25;16.25;;;;;;;;6375275;22;8826;-76
2023/05/25 18:47:19;;;;;;;;;15.00;14.50;;;;;;;;6346307;22;8817;-72
2023/05/25 18:49:44;;;;;;;;;13.25;11.00;;;;;;;;6375380;22;9603;-73